createdAt,value
2022-08-18T04:00:35.878Z,78.98
2022-08-18T04:01:35.874Z,78.58
2022-08-18T04:02:35.845Z,78.68
2022-08-18T04:03:35.828Z,78.38
2022-08-18T04:04:35.802Z,78.58
2022-08-18T04:05:35.787Z,79.28
2022-08-18T04:06:35.776Z,79.08
2022-08-18T04:07:35.784Z,79.18
2022-08-18T04:08:35.760Z,78.88
2022-08-18T04:09:35.746Z,79.08
2022-08-18T04:10:35.732Z,79.78
2022-08-18T04:11:40.744Z,79.88
2022-08-18T04:12:35.720Z,80.18
2022-08-18T04:13:35.697Z,79.88
2022-08-18T04:14:35.689Z,79.78
2022-08-18T04:15:35.674Z,80.52
2022-08-18T04:16:35.665Z,80.62
2022-08-18T04:17:35.667Z,80.72
2022-08-18T04:18:36.642Z,81.32
2022-08-18T04:19:35.633Z,81.12
2022-08-18T04:20:35.619Z,81.12
2022-08-18T04:21:35.607Z,81.42
2022-08-18T04:22:40.629Z,81.93
2022-08-18T04:23:43.492Z,82.12
2022-08-18T04:24:36.573Z,82.32
2022-08-18T04:25:35.561Z,82.03
2022-08-18T04:26:35.551Z,81.23
2022-08-18T04:27:35.554Z,81.73
2022-08-18T04:28:35.527Z,81.62
2022-08-18T04:29:35.514Z,82.57
2022-08-18T04:30:35.505Z,82.32
2022-08-18T04:31:35.498Z,83.07
2022-08-18T04:32:35.483Z,82.87
2022-08-18T04:33:40.503Z,82.32
2022-08-18T04:34:35.463Z,82.87
2022-08-18T04:35:35.444Z,83.17
2022-08-18T04:36:35.448Z,83.13
2022-08-18T04:37:37.914Z,82.76
2022-08-18T04:38:35.424Z,82.23
2022-08-18T04:39:35.457Z,81.62
2022-08-18T04:40:35.391Z,82.12
2022-08-18T04:41:35.409Z,81.52
2022-08-18T04:42:35.367Z,81.32
2022-08-18T04:43:36.361Z,81.82
2022-08-18T04:44:40.365Z,82.26
2022-08-18T04:45:35.336Z,81.96
2022-08-18T04:46:35.323Z,82.32
2022-08-18T04:47:35.319Z,82.23
2022-08-18T04:48:35.307Z,82.53
2022-08-18T04:49:35.288Z,82.32
2022-08-18T04:50:35.279Z,82.12
2022-08-18T04:52:26.720Z,81.82
2022-08-18T04:52:40.028Z,81.82
2022-08-18T04:53:36.248Z,81.82
2022-08-18T04:54:35.229Z,81.48
2022-08-18T04:55:40.237Z,80.88
2022-08-18T04:56:35.206Z,81.09
2022-08-18T04:57:35.383Z,81.09
2022-08-18T04:58:35.194Z,80.65
2022-08-18T04:59:35.174Z,81.45
2022-08-18T05:00:35.161Z,81.04
2022-08-18T05:01:35.229Z,81.04
2022-08-18T05:02:35.189Z,81.99
2022-08-18T05:03:35.139Z,82.39
2022-08-18T05:04:36.115Z,82.32
2022-08-18T05:05:35.106Z,82.32
2022-08-18T05:06:40.117Z,83.63
2022-08-18T05:07:35.089Z,84.23
2022-08-18T05:08:35.080Z,84.07
2022-08-18T05:09:41.481Z,83.83
2022-08-18T05:10:36.047Z,84.13
2022-08-18T05:11:35.039Z,84.57
2022-08-18T05:12:35.054Z,85.27
2022-08-18T05:13:35.021Z,85.58
2022-08-18T05:14:35.004Z,86.08
2022-08-18T05:15:59.346Z,85.92
2022-08-18T05:16:35.981Z,86.28
2022-08-18T05:17:40.003Z,86.38
2022-08-18T05:18:34.969Z,85.97
2022-08-18T05:19:34.945Z,86.38
2022-08-18T05:20:34.932Z,85.97
2022-08-18T05:21:34.920Z,85.88
2022-08-18T05:22:34.914Z,85.97
2022-08-18T05:23:34.912Z,84.83
2022-08-18T05:24:37.214Z,84.74
2022-08-18T05:25:34.873Z,84.83
2022-08-18T05:26:34.865Z,85.33
2022-08-18T05:27:34.853Z,85.88
2022-08-18T05:28:39.879Z,85.78
2022-08-18T05:29:34.862Z,85.88
2022-08-18T05:30:34.818Z,86.52
2022-08-18T05:31:34.810Z,87.02
2022-08-18T05:32:47.449Z,87.52
2022-08-18T05:33:35.793Z,87.93
2022-08-18T05:34:34.772Z,87.66
2022-08-18T05:35:34.761Z,87.82
2022-08-18T05:36:34.748Z,87.82
2022-08-18T05:37:35.743Z,87.62
2022-08-18T05:38:34.737Z,87.62
2022-08-18T05:39:39.816Z,88.02
2022-08-18T05:40:34.717Z,88.37
2022-08-18T05:41:34.694Z,87.82
2022-08-18T05:42:34.681Z,87.32
2022-08-18T05:43:34.691Z,87.52
2022-08-18T05:44:34.672Z,86.78
2022-08-18T05:45:34.644Z,86.98
2022-08-18T05:46:34.651Z,87.52
2022-08-18T05:47:34.623Z,86.48
2022-08-18T05:48:36.006Z,86.78
2022-08-18T05:49:34.600Z,86.33
2022-08-18T05:50:39.615Z,84.69
2022-08-18T05:51:34.580Z,82.95
2022-08-18T05:52:34.565Z,83.35
2022-08-18T05:53:34.582Z,82.75
2022-08-18T05:54:34.542Z,82.05
2022-08-18T05:55:34.533Z,81.71
2022-08-18T05:56:34.524Z,80.97
2022-08-18T05:57:34.541Z,80.97
2022-08-18T05:58:34.504Z,79.93
2022-08-18T05:59:34.496Z,79.43
2022-08-18T06:00:34.473Z,80.13
2022-08-18T06:01:39.485Z,80.03
2022-08-18T06:02:34.520Z,80.03
2022-08-18T06:03:45.208Z,79.23
2022-08-18T06:04:35.464Z,78.79
2022-08-18T06:05:34.417Z,77.69
2022-08-18T06:06:34.404Z,78.19
2022-08-18T06:07:34.400Z,78.49
2022-08-18T06:08:34.395Z,78.69
2022-08-18T06:09:34.382Z,78.73
2022-08-18T06:10:34.359Z,78.89
2022-08-18T06:11:34.352Z,78.89
2022-08-18T06:12:43.397Z,79.63
2022-08-18T06:13:35.339Z,80.23
2022-08-18T06:14:34.325Z,80.27
2022-08-18T06:15:34.321Z,80.47
2022-08-18T06:16:35.293Z,80.57
2022-08-18T06:17:34.286Z,80.67
2022-08-18T06:18:34.268Z,81.17
2022-08-18T06:19:34.280Z,80.97
2022-08-18T06:20:34.248Z,80.87
2022-08-18T06:21:38.763Z,81.51
2022-08-18T06:22:34.225Z,82.11
2022-08-18T06:23:39.236Z,82.01
2022-08-18T06:24:34.213Z,81.81
2022-08-18T06:25:34.215Z,82.11
2022-08-18T06:26:34.226Z,82.11
2022-08-18T06:27:34.171Z,82.11
2022-08-18T06:28:34.169Z,82.21
2022-08-18T06:29:34.182Z,82.31
2022-08-18T06:30:34.136Z,81.41
2022-08-18T06:31:34.124Z,81.81
2022-08-18T06:32:34.119Z,81.71
2022-08-18T06:33:34.123Z,81.71
2022-08-18T06:34:39.119Z,81.91
2022-08-18T06:35:34.079Z,81.67
2022-08-18T06:36:34.068Z,81.61
2022-08-18T06:37:34.056Z,82.21
2022-08-18T06:38:34.047Z,81.41
2022-08-18T06:39:34.103Z,81.71
2022-08-18T06:40:34.022Z,82.21
2022-08-18T06:41:42.533Z,81.27
2022-08-18T06:42:39.965Z,81.77
2022-08-18T06:43:35.045Z,81.47
2022-08-18T06:44:34.011Z,82.31
2022-08-18T06:45:39.751Z,82.51
2022-08-18T06:46:33.954Z,83.05
2022-08-18T06:47:33.997Z,83.79
2022-08-18T06:48:34.075Z,83.89
2022-08-18T06:49:33.935Z,84.09
2022-08-18T06:50:33.907Z,83.89
2022-08-18T06:51:38.730Z,83.85
2022-08-18T06:52:34.886Z,83.89
2022-08-18T06:53:33.889Z,83.89
2022-08-18T06:54:33.877Z,84.19
2022-08-18T06:55:33.881Z,84.19
2022-08-18T06:56:38.872Z,84.59
2022-08-18T06:57:33.833Z,84.79
2022-08-18T06:58:33.818Z,84.59
2022-08-18T06:59:33.829Z,84.69
2022-08-18T07:00:33.852Z,84.39
2022-08-18T07:01:33.883Z,84.79
2022-08-18T07:02:35.353Z,84.69
2022-08-18T07:03:33.804Z,84.79
2022-08-18T07:04:33.762Z,84.59
2022-08-18T07:05:33.742Z,84.59
2022-08-18T07:06:33.727Z,84.79
2022-08-18T07:07:40.029Z,84.79
2022-08-18T07:08:35.859Z,84.69
2022-08-18T07:09:33.695Z,84.79
2022-08-18T07:10:33.786Z,84.39
2022-08-18T07:11:33.676Z,84.49
2022-08-18T07:12:33.663Z,84.69
2022-08-18T07:13:33.649Z,84.49
2022-08-18T07:14:33.635Z,84.29
2022-08-18T07:15:33.644Z,84.49
2022-08-18T07:16:57.161Z,84.25
2022-08-18T07:17:43.407Z,84.25
2022-08-18T07:18:39.613Z,84.05
2022-08-18T07:19:33.580Z,83.99
2022-08-18T07:20:33.577Z,84.19
2022-08-18T07:21:33.558Z,84.49
2022-08-18T07:22:39.540Z,84.49
2022-08-18T07:23:34.538Z,84.59
2022-08-18T07:24:33.579Z,84.79
2022-08-18T07:25:33.527Z,84.79
2022-08-18T07:26:33.511Z,84.79
2022-08-18T07:27:33.491Z,84.79
2022-08-18T07:28:33.481Z,84.69
2022-08-18T07:29:38.492Z,84.89
2022-08-18T07:30:33.512Z,84.69
2022-08-18T07:31:33.448Z,84.69
2022-08-18T07:32:33.436Z,84.79
2022-08-18T07:33:33.428Z,84.39
2022-08-18T07:34:33.409Z,84.49
2022-08-18T07:35:33.409Z,84.45
2022-08-18T07:36:33.388Z,84.39
2022-08-18T07:37:33.381Z,84.25
2022-08-18T07:38:43.219Z,84.15
2022-08-18T07:39:34.388Z,84.15
2022-08-18T07:40:38.378Z,84.05
2022-08-18T07:41:33.370Z,83.95
2022-08-18T07:42:54.289Z,84.35
2022-08-18T07:43:34.308Z,84.35
2022-08-18T07:44:33.296Z,84.65
2022-08-18T07:45:33.310Z,84.65
2022-08-18T07:46:33.319Z,84.49
2022-08-18T07:47:33.264Z,84.59
2022-08-18T07:48:40.649Z,84.29
2022-08-18T07:49:35.409Z,84.75
2022-08-18T07:50:58.578Z,84.65
2022-08-18T07:51:39.238Z,84.69
2022-08-18T07:52:36.099Z,84.75
2022-08-18T07:53:34.197Z,84.75
2022-08-18T07:54:50.093Z,84.65
2022-08-18T07:55:34.189Z,84.75
2022-08-18T07:56:33.162Z,84.65
2022-08-18T07:57:33.149Z,84.45
2022-08-18T07:58:34.136Z,84.65
2022-08-18T07:59:33.130Z,84.55
2022-08-18T08:00:57.657Z,84.65
2022-08-18T08:01:34.203Z,84.55
2022-08-18T08:02:38.127Z,84.89
2022-08-18T08:03:33.082Z,84.45
2022-08-18T08:04:33.067Z,84.75
2022-08-18T08:05:33.071Z,84.39
2022-08-18T08:06:33.045Z,84.55
2022-08-18T08:07:33.040Z,84.45
2022-08-18T08:08:33.023Z,84.45
2022-08-18T08:09:33.014Z,84.35
2022-08-18T08:10:33.010Z,84.15
2022-08-18T08:11:32.991Z,84.15
2022-08-18T08:12:32.979Z,84.15
2022-08-18T08:13:54.642Z,83.75
2022-08-18T08:14:33.958Z,83.85
2022-08-18T08:15:32.959Z,83.85
2022-08-18T08:16:32.939Z,83.61
2022-08-18T08:17:32.924Z,83.51
2022-08-18T08:18:32.922Z,83.51
2022-08-18T08:19:58.837Z,83.31
2022-08-18T08:20:33.902Z,83.65
2022-08-18T08:21:32.881Z,83.45
2022-08-18T08:22:32.870Z,83.71
2022-08-18T08:23:32.857Z,83.61
2022-08-18T08:24:37.864Z,83.51
2022-08-18T08:25:46.444Z,83.55
2022-08-18T08:26:33.819Z,83.71
2022-08-18T08:27:32.814Z,83.51
2022-08-18T08:28:32.808Z,83.11
2022-08-18T08:29:32.789Z,83.31
2022-08-18T08:30:32.794Z,82.81
2022-08-18T08:31:37.503Z,83.01
2022-08-18T08:32:33.751Z,83.41
2022-08-18T08:33:32.756Z,83.11
2022-08-18T08:34:32.731Z,83.11
2022-08-18T08:35:47.374Z,83.51
2022-08-18T08:36:33.706Z,82.77
2022-08-18T08:37:32.705Z,82.71
2022-08-18T08:38:42.725Z,82.27
2022-08-18T08:39:33.762Z,81.57
2022-08-18T08:40:32.678Z,81.67
2022-08-18T08:41:32.653Z,82.27
2022-08-18T08:42:35.354Z,81.77
2022-08-18T08:43:32.634Z,81.53
2022-08-18T08:44:32.623Z,81.37
2022-08-18T08:45:32.624Z,80.93
2022-08-18T08:46:37.616Z,81.23
2022-08-18T08:47:32.587Z,81.53
2022-08-18T08:48:32.573Z,81.13
2022-08-18T08:49:32.560Z,80.43
2022-08-18T08:50:32.549Z,80.53
2022-08-18T08:51:32.550Z,80.63
2022-08-18T08:52:32.527Z,80.57
2022-08-18T08:53:32.520Z,80.36
2022-08-18T08:54:32.509Z,80.13
2022-08-18T08:55:32.500Z,80.03
2022-08-18T08:56:32.490Z,80.23
2022-08-18T08:57:37.494Z,80.23
2022-08-18T08:58:32.458Z,80.07
2022-08-18T08:59:32.448Z,80.17
2022-08-18T09:00:32.435Z,78.83
2022-08-18T09:01:32.540Z,79.03
2022-08-18T09:02:47.148Z,79.13
2022-08-18T09:03:33.417Z,79.13
2022-08-18T09:04:32.390Z,79.23
2022-08-18T09:05:32.386Z,79.13
2022-08-18T09:06:32.379Z,78.83
2022-08-18T09:07:38.031Z,78.83
2022-08-18T09:08:38.366Z,79.33
2022-08-18T09:09:32.339Z,80.03
2022-08-18T09:10:32.328Z,81.53
2022-08-18T09:11:32.327Z,82.83
2022-08-18T09:12:32.303Z,82.67
2022-08-18T09:13:32.292Z,82.77
2022-08-18T09:14:32.278Z,84.11
2022-08-18T09:15:32.267Z,84.17
2022-08-18T09:16:32.270Z,84.21
2022-08-18T09:17:34.319Z,86.91
2022-08-18T09:18:32.236Z,88.06
2022-08-18T09:19:37.252Z,88.80
2022-08-18T09:20:32.210Z,89.45
2022-08-18T09:21:32.216Z,90.35
2022-08-18T09:22:32.187Z,91.35
2022-08-18T09:23:32.177Z,91.96
2022-08-18T09:24:32.164Z,92.60
2022-08-18T09:25:32.156Z,93.30
2022-08-18T09:26:35.156Z,93.44
2022-08-18T09:27:48.677Z,93.85
2022-08-18T09:28:33.119Z,93.55
2022-08-18T09:29:32.114Z,94.25
2022-08-18T09:30:37.121Z,94.20
2022-08-18T09:31:32.402Z,94.31
2022-08-18T09:32:32.078Z,94.55
2022-08-18T09:33:32.132Z,95.15
2022-08-18T09:34:32.056Z,95.45
2022-08-18T09:35:32.168Z,96.15
2022-08-18T09:36:32.073Z,96.15
2022-08-18T09:37:32.039Z,95.86
2022-08-18T09:38:32.010Z,96.56
2022-08-18T09:39:32.054Z,97.20
2022-08-18T09:40:59.276Z,96.60
2022-08-18T09:41:38.006Z,97.20
2022-08-18T09:42:31.962Z,97.31
2022-08-18T09:43:31.954Z,97.91
2022-08-18T09:44:31.941Z,97.81
2022-08-18T09:45:34.031Z,98.11
2022-08-18T09:46:31.925Z,97.86
2022-08-18T09:47:31.907Z,98.46
2022-08-18T09:48:31.917Z,98.36
2022-08-18T09:49:31.883Z,98.46
2022-08-18T09:50:32.882Z,98.51
2022-08-18T09:51:31.873Z,97.91
2022-08-18T09:52:49.337Z,98.21
2022-08-18T09:53:32.838Z,97.81
2022-08-18T09:54:31.830Z,97.91
2022-08-18T09:55:31.813Z,97.71
2022-08-18T09:56:31.812Z,96.70
2022-08-18T09:57:43.793Z,97.41
2022-08-18T09:58:32.783Z,97.00
2022-08-18T09:59:31.775Z,97.50
2022-08-18T10:00:33.412Z,96.91
2022-08-18T10:01:31.946Z,97.50
2022-08-18T10:02:31.733Z,97.81
2022-08-18T10:03:36.745Z,97.86
2022-08-18T10:04:31.710Z,98.16
2022-08-18T10:05:31.704Z,97.46
2022-08-18T10:06:31.704Z,98.07
2022-08-18T10:07:35.496Z,97.76
2022-08-18T10:08:32.683Z,97.96
2022-08-18T10:11:01.683Z,97.61
2022-08-18T10:11:32.720Z,97.61
2022-08-18T10:12:31.618Z,97.76
2022-08-18T10:13:31.636Z,97.72
2022-08-18T10:14:36.624Z,97.61
2022-08-18T10:16:42.018Z,96.26
2022-08-18T10:17:32.569Z,95.75
2022-08-18T10:18:31.562Z,96.06
2022-08-18T10:19:39.407Z,96.01
2022-08-18T10:20:32.528Z,96.66
2022-08-18T10:21:33.525Z,96.01
2022-08-18T10:22:35.179Z,95.01
2022-08-18T10:23:31.492Z,95.61
2022-08-18T10:25:37.488Z,95.31
2022-08-18T10:26:31.459Z,95.31
2022-08-18T10:27:31.455Z,96.26
2022-08-18T10:28:31.459Z,95.65
2022-08-18T10:29:31.423Z,95.21
2022-08-18T10:30:34.469Z,95.31
2022-08-18T10:31:32.401Z,95.10
2022-08-18T10:32:31.399Z,94.81
2022-08-18T10:33:31.384Z,95.01
2022-08-18T10:34:31.372Z,95.21
2022-08-18T10:35:32.781Z,95.01
2022-08-18T10:36:36.366Z,95.01
2022-08-18T10:37:31.338Z,94.60
2022-08-18T10:38:31.320Z,94.40
2022-08-18T10:39:31.362Z,94.40
2022-08-18T10:40:32.297Z,94.31
2022-08-18T10:41:31.481Z,94.10
2022-08-18T10:42:31.671Z,94.40
2022-08-18T10:43:55.157Z,95.10
2022-08-18T10:44:32.252Z,94.90
2022-08-18T10:45:31.242Z,95.21
2022-08-18T10:46:33.226Z,94.40
2022-08-18T10:47:36.249Z,94.60
2022-08-18T10:48:31.207Z,94.40
2022-08-18T10:49:31.192Z,95.10
2022-08-18T10:50:31.186Z,94.66
2022-08-18T10:51:31.171Z,94.90
2022-08-18T10:52:33.972Z,94.90
2022-08-18T10:53:40.614Z,94.71
2022-08-18T10:54:32.137Z,94.60
2022-08-18T10:55:48.998Z,94.36
2022-08-18T10:56:32.115Z,93.96
2022-08-18T10:57:31.111Z,94.10
2022-08-18T10:58:36.114Z,93.86
2022-08-18T10:59:31.097Z,93.86
2022-08-18T11:00:32.069Z,92.96
2022-08-18T11:01:32.900Z,93.26
2022-08-18T11:02:31.066Z,92.76
2022-08-18T11:03:55.333Z,92.55
2022-08-18T11:05:32.008Z,91.75
2022-08-18T11:06:31.003Z,91.51
2022-08-18T11:07:34.472Z,91.81
2022-08-18T11:08:31.775Z,91.31
2022-08-18T11:09:35.995Z,92.51
2022-08-18T11:10:32.445Z,91.27
2022-08-18T11:11:37.160Z,91.51
2022-08-18T11:12:31.949Z,91.86
2022-08-18T11:13:30.921Z,91.97
2022-08-18T11:14:30.913Z,91.77
2022-08-18T11:16:31.891Z,90.06
2022-08-18T11:17:30.885Z,90.06
2022-08-18T11:18:30.873Z,89.22
2022-08-18T11:19:30.854Z,89.22
2022-08-18T11:20:35.868Z,88.42
2022-08-18T11:21:30.829Z,88.62
2022-08-18T11:22:31.395Z,88.37
2022-08-18T11:23:30.807Z,87.27
2022-08-18T11:24:30.798Z,87.53
2022-08-18T11:25:30.787Z,86.13
2022-08-18T11:26:30.779Z,86.13
2022-08-18T11:27:30.783Z,86.03
2022-08-18T11:28:32.553Z,85.93
2022-08-18T11:29:32.275Z,84.93
2022-08-18T11:30:31.487Z,85.83
2022-08-18T11:31:35.738Z,86.03
2022-08-18T11:32:30.721Z,85.83
2022-08-18T11:33:30.696Z,85.49
2022-08-18T11:34:30.685Z,85.79
2022-08-18T11:35:30.714Z,84.89
2022-08-18T11:36:30.665Z,84.49
2022-08-18T11:37:51.294Z,84.55
2022-08-18T11:38:31.714Z,84.29
2022-08-18T11:39:38.411Z,84.05
2022-08-18T11:41:33.190Z,84.91
2022-08-18T11:42:36.631Z,84.31
2022-08-18T11:43:41.558Z,84.01
2022-08-18T11:44:31.582Z,85.01
2022-08-18T11:45:30.578Z,84.01
2022-08-18T11:46:31.899Z,83.61
2022-08-18T11:47:30.550Z,83.31
2022-08-18T11:49:31.514Z,82.11
2022-08-18T11:50:30.507Z,82.81
2022-08-18T11:51:30.494Z,82.71
2022-08-18T11:52:34.655Z,82.51
2022-08-18T11:53:35.494Z,83.21
2022-08-18T11:54:30.471Z,82.28
2022-08-18T11:55:30.448Z,82.97
2022-08-18T11:56:30.973Z,82.87
2022-08-18T11:57:30.435Z,81.98
2022-08-18T11:58:30.415Z,82.87
2022-08-18T12:00:31.390Z,82.03
2022-08-18T12:01:30.380Z,81.73
2022-08-18T12:02:30.379Z,81.84
2022-08-18T12:03:30.367Z,81.10
2022-08-18T12:04:35.369Z,81.04
2022-08-18T12:05:30.391Z,81.40
2022-08-18T12:06:31.324Z,81.73
2022-08-18T12:07:30.443Z,81.10
2022-08-18T12:08:56.093Z,81.49
2022-08-18T12:10:07.898Z,81.79
2022-08-18T12:10:31.283Z,81.60
2022-08-18T12:11:30.266Z,80.40
2022-08-18T12:12:30.257Z,79.90
2022-08-18T12:13:30.255Z,80.50
2022-08-18T12:14:35.372Z,80.30
2022-08-18T12:15:44.071Z,79.80
2022-08-18T12:16:31.214Z,80.30
2022-08-18T12:17:30.200Z,79.80
2022-08-18T12:18:30.223Z,79.66
2022-08-18T12:19:30.174Z,78.97
2022-08-18T12:20:30.168Z,79.46
2022-08-18T12:21:30.153Z,78.77
2022-08-18T12:22:30.144Z,78.77
2022-08-18T12:23:38.899Z,77.53
2022-08-18T12:24:34.665Z,76.83
2022-08-18T12:25:31.157Z,76.60
2022-08-18T12:26:39.083Z,76.26
2022-08-18T12:27:32.181Z,74.66
2022-08-18T12:28:30.094Z,71.91
2022-08-18T12:29:36.596Z,69.06
2022-08-18T12:30:31.054Z,68.99
2022-08-18T12:31:47.507Z,66.78
2022-08-18T12:32:46.709Z,67.24
2022-08-18T12:33:34.532Z,66.32
2022-08-18T12:34:31.013Z,65.73
2022-08-18T12:35:30.002Z,65.30
2022-08-18T12:36:29.987Z,64.67
2022-08-18T12:37:58.191Z,63.59
2022-08-18T12:38:30.986Z,64.84
2022-08-18T12:39:30.011Z,65.26
2022-08-18T12:40:29.943Z,66.49
2022-08-18T12:41:29.931Z,66.61
2022-08-18T12:42:29.925Z,66.61
2022-08-18T12:43:32.298Z,66.58
2022-08-18T12:44:29.900Z,68.10
2022-08-18T12:45:29.887Z,68.50
2022-08-18T12:46:29.877Z,68.50
2022-08-18T12:47:31.131Z,67.77
2022-08-18T12:48:29.870Z,66.85
2022-08-18T12:49:29.870Z,66.45
2022-08-18T12:51:30.957Z,66.35
2022-08-18T12:52:29.845Z,67.64
2022-08-18T12:53:57.857Z,67.57
2022-08-18T12:54:30.787Z,68.70
2022-08-18T12:55:29.781Z,68.40
2022-08-18T12:56:29.765Z,68.50
2022-08-18T12:58:30.770Z,68.93
2022-08-18T12:59:32.465Z,69.23
2022-08-18T13:00:30.722Z,69.32
2022-08-18T13:01:29.766Z,68.46
2022-08-18T13:02:29.700Z,68.86
2022-08-18T13:03:35.267Z,69.16
2022-08-18T13:04:29.682Z,69.26
2022-08-18T13:05:30.173Z,70.15
2022-08-18T13:06:29.656Z,70.59
2022-08-18T13:07:29.654Z,70.06
2022-08-18T13:08:33.707Z,70.25
2022-08-18T13:09:35.800Z,70.45
2022-08-18T13:10:42.969Z,70.95
2022-08-18T13:11:30.616Z,70.36
2022-08-18T13:12:29.588Z,70.65
2022-08-18T13:13:29.615Z,70.85
2022-08-18T13:14:34.654Z,70.95
2022-08-18T13:15:29.554Z,70.48
2022-08-18T13:16:38.578Z,70.98
2022-08-18T13:17:33.663Z,71.48
2022-08-18T13:18:29.546Z,70.75
2022-08-18T13:19:32.035Z,71.58
2022-08-18T13:20:29.500Z,71.78
2022-08-18T13:21:29.501Z,72.08
2022-08-18T13:22:32.769Z,71.84
2022-08-18T13:23:29.476Z,70.98
2022-08-18T13:24:29.460Z,72.14
2022-08-18T13:25:39.806Z,71.45
2022-08-18T13:26:30.431Z,71.34
2022-08-18T13:27:33.140Z,70.55
2022-08-18T13:28:30.839Z,71.55
2022-08-18T13:29:30.396Z,70.72
2022-08-18T13:30:32.135Z,70.22
2022-08-18T13:31:29.375Z,70.45
2022-08-18T13:32:38.314Z,70.42
2022-08-18T13:33:34.875Z,69.72
2022-08-18T13:34:30.357Z,70.02
2022-08-18T13:35:30.025Z,68.73
2022-08-18T13:36:35.342Z,68.80
2022-08-18T13:37:29.308Z,68.30
2022-08-18T13:38:29.307Z,68.80
2022-08-18T13:39:33.610Z,68.30
2022-08-18T13:40:30.353Z,67.54
2022-08-18T13:41:29.299Z,67.50
2022-08-18T13:42:32.173Z,66.81
2022-08-18T13:43:30.253Z,66.81
2022-08-18T13:44:29.232Z,67.60
2022-08-18T13:45:29.222Z,68.30
2022-08-18T13:46:31.212Z,68.20
2022-08-18T13:47:38.066Z,68.20
2022-08-18T13:48:29.198Z,67.60
2022-08-18T13:49:30.275Z,67.31
2022-08-18T13:50:29.770Z,67.31
2022-08-18T13:51:29.151Z,67.60
2022-08-18T13:52:35.648Z,68.10
2022-08-18T13:53:31.592Z,68.20
2022-08-18T13:54:31.265Z,68.10
2022-08-18T13:55:29.123Z,68.30
2022-08-18T13:56:31.700Z,67.80
2022-08-18T13:57:29.086Z,67.71
2022-08-18T13:58:34.107Z,68.00
2022-08-18T13:59:29.061Z,68.60
2022-08-18T14:00:30.951Z,68.46
2022-08-18T14:01:52.003Z,67.18
2022-08-18T14:02:30.118Z,68.07
2022-08-18T14:03:42.290Z,67.67
2022-08-18T14:04:30.024Z,67.47
2022-08-18T14:05:36.816Z,67.08
2022-08-18T14:06:29.988Z,66.98
2022-08-18T14:07:28.986Z,67.08
2022-08-18T14:08:28.975Z,67.57
2022-08-18T14:09:36.182Z,67.47
2022-08-18T14:10:28.942Z,66.48
2022-08-18T14:11:33.200Z,66.48
2022-08-18T14:12:33.231Z,65.99
2022-08-18T14:13:28.908Z,66.38
2022-08-18T14:14:29.894Z,66.08
2022-08-18T14:15:28.901Z,64.50
2022-08-18T14:16:28.877Z,63.90
2022-08-18T14:17:28.888Z,64.92
2022-08-18T14:18:30.727Z,65.42
2022-08-18T14:19:28.844Z,64.73
2022-08-18T14:20:33.851Z,64.43
2022-08-18T14:21:28.824Z,65.32
2022-08-18T14:22:28.824Z,65.52
2022-08-18T14:23:32.370Z,66.02
2022-08-18T14:24:28.787Z,66.11
2022-08-18T14:25:28.771Z,65.62
2022-08-18T14:26:28.840Z,65.72
2022-08-18T14:27:28.819Z,66.22
2022-08-18T14:28:29.751Z,64.53
2022-08-18T14:29:46.051Z,64.43
2022-08-18T14:30:29.718Z,63.43
2022-08-18T14:31:34.049Z,63.43
2022-08-18T14:32:29.920Z,63.73
2022-08-18T14:33:49.867Z,64.33
2022-08-18T14:34:29.673Z,64.03
2022-08-18T14:35:33.704Z,64.03
2022-08-18T14:36:30.540Z,64.33
2022-08-18T14:37:28.648Z,64.73
2022-08-18T14:38:28.625Z,65.42
2022-08-18T14:39:28.666Z,65.72
2022-08-18T14:40:28.700Z,65.82
2022-08-18T14:41:28.594Z,66.11
2022-08-18T14:42:41.812Z,66.11
2022-08-18T14:43:29.573Z,66.61
2022-08-18T14:44:32.519Z,66.51
2022-08-18T14:45:35.467Z,66.41
2022-08-18T14:46:30.604Z,66.51
2022-08-18T14:47:31.095Z,66.61
2022-08-18T14:48:28.492Z,66.61
2022-08-18T14:49:29.445Z,66.02
2022-08-18T14:50:28.473Z,65.62
2022-08-18T14:51:28.462Z,65.92
2022-08-18T14:52:28.446Z,66.31
2022-08-18T14:53:33.471Z,66.02
2022-08-18T14:54:30.047Z,65.92
2022-08-18T14:55:28.417Z,66.02
2022-08-18T14:56:29.273Z,65.22
2022-08-18T14:57:28.394Z,64.92
2022-08-18T14:58:28.391Z,64.33
2022-08-18T14:59:28.385Z,65.02
2022-08-18T15:00:28.444Z,64.62
2022-08-18T15:01:28.424Z,64.99
2022-08-18T15:02:29.333Z,64.70
2022-08-18T15:03:31.014Z,64.00
2022-08-18T15:04:33.335Z,63.10
2022-08-18T15:05:29.300Z,63.60
2022-08-18T15:06:28.288Z,62.91
2022-08-18T15:07:28.285Z,63.31
2022-08-18T15:08:28.320Z,63.31
2022-08-18T15:09:28.320Z,62.41
2022-08-18T15:10:28.409Z,62.12
2022-08-18T15:11:28.232Z,62.31
2022-08-18T15:12:28.222Z,62.02
2022-08-18T15:13:28.222Z,62.12
2022-08-18T15:14:32.996Z,62.02
2022-08-18T15:15:50.544Z,62.02
2022-08-18T15:16:32.232Z,61.72
2022-08-18T15:17:28.170Z,61.82
2022-08-18T15:18:28.171Z,61.82
2022-08-18T15:19:58.612Z,61.82
2022-08-18T15:20:29.858Z,61.82
2022-08-18T15:21:35.291Z,61.91
2022-08-18T15:22:29.110Z,61.42
2022-08-18T15:23:28.450Z,62.21
2022-08-18T15:24:28.089Z,61.42
2022-08-18T15:25:28.079Z,60.63
2022-08-18T15:26:34.688Z,61.12
2022-08-18T15:27:42.686Z,60.93
2022-08-18T15:28:29.061Z,60.72
2022-08-18T15:29:29.474Z,60.72
2022-08-18T15:30:28.086Z,60.33
2022-08-18T15:32:02.302Z,60.43
2022-08-18T15:32:28.999Z,59.83
2022-08-18T15:33:31.579Z,59.53
2022-08-18T15:34:28.986Z,59.83
2022-08-18T15:35:27.969Z,59.83
2022-08-18T15:36:29.262Z,59.63
2022-08-18T15:37:32.970Z,59.04
2022-08-18T15:38:27.936Z,58.54
2022-08-18T15:39:27.960Z,58.94
2022-08-18T15:40:35.481Z,58.94
2022-08-18T15:41:28.994Z,59.34
2022-08-18T15:42:27.893Z,59.34
2022-08-18T15:43:31.340Z,59.14
2022-08-18T15:44:27.884Z,58.64
2022-08-18T15:45:27.861Z,58.34
2022-08-18T15:46:28.867Z,57.85
2022-08-18T15:47:27.840Z,58.12
2022-08-18T15:48:32.848Z,57.32
2022-08-18T15:49:27.827Z,57.32
2022-08-18T15:50:28.807Z,57.35
2022-08-18T15:51:27.797Z,56.63
2022-08-18T15:52:28.790Z,56.53
2022-08-18T15:53:29.610Z,56.06
2022-08-18T15:54:27.773Z,56.26
2022-08-18T15:55:27.753Z,56.23
2022-08-18T15:56:27.756Z,56.46
2022-08-18T15:57:39.615Z,56.26
2022-08-18T15:58:29.347Z,56.46
2022-08-18T15:59:34.271Z,56.56
2022-08-18T16:00:28.695Z,57.25
2022-08-18T16:01:30.361Z,56.46
2022-08-18T16:02:27.695Z,56.56
2022-08-18T16:03:27.674Z,56.36
2022-08-18T16:04:27.654Z,57.95
2022-08-18T16:05:27.662Z,57.35
2022-08-18T16:06:32.544Z,57.25
2022-08-18T16:07:41.376Z,56.26
2022-08-18T16:08:28.618Z,56.26
2022-08-18T16:09:27.605Z,56.06
2022-08-18T16:10:32.610Z,56.46
2022-08-18T16:11:29.643Z,56.06
2022-08-18T16:12:27.564Z,56.16
2022-08-18T16:13:27.580Z,56.36
2022-08-18T16:14:27.544Z,56.56
2022-08-18T16:15:27.532Z,56.56
2022-08-18T16:16:29.071Z,55.87
2022-08-18T16:17:31.746Z,55.96
2022-08-18T16:18:27.507Z,56.06
2022-08-18T16:19:30.138Z,56.36
2022-08-18T16:20:27.475Z,56.26
2022-08-18T16:21:32.489Z,55.96
2022-08-18T16:22:27.454Z,55.04
2022-08-18T16:23:27.453Z,55.36
2022-08-18T16:24:27.434Z,55.76
2022-08-18T16:25:27.423Z,54.97
2022-08-18T16:26:27.413Z,56.16
2022-08-18T16:27:27.402Z,55.96
2022-08-18T16:28:35.010Z,56.06
2022-08-18T16:29:28.378Z,55.66
2022-08-18T16:30:27.367Z,55.47
2022-08-18T16:31:27.357Z,55.76
2022-08-18T16:32:32.366Z,56.06
2022-08-18T16:33:27.333Z,56.26
2022-08-18T16:34:30.509Z,56.66
2022-08-18T16:35:27.313Z,55.76
2022-08-18T16:36:27.299Z,56.56
2022-08-18T16:37:27.291Z,56.46
2022-08-18T16:38:27.278Z,56.59
2022-08-18T16:39:27.278Z,55.99
2022-08-18T16:40:28.050Z,56.26
2022-08-18T16:41:27.256Z,56.06
2022-08-18T16:42:27.233Z,56.26
2022-08-18T16:43:32.245Z,56.36
2022-08-18T16:44:27.226Z,55.96
2022-08-18T16:45:27.202Z,56.16
2022-08-18T16:46:27.211Z,56.26
2022-08-18T16:47:27.181Z,55.87
2022-08-18T16:49:27.171Z,56.16
2022-08-18T16:50:27.144Z,54.97
2022-08-18T16:51:27.135Z,54.97
2022-08-18T16:52:27.150Z,55.27
2022-08-18T16:53:27.114Z,55.47
2022-08-18T16:54:33.130Z,55.96
2022-08-18T16:55:27.091Z,55.87
2022-08-18T16:56:27.089Z,56.56
2022-08-18T16:57:50.566Z,56.95
2022-08-18T16:58:28.055Z,55.66
2022-08-18T16:59:27.113Z,55.66
2022-08-18T17:00:27.034Z,54.97
2022-08-18T17:01:27.069Z,56.16
2022-08-18T17:02:28.046Z,55.87
2022-08-18T17:03:27.001Z,55.66